createdAt,value
2022-07-26T00:01:52.717Z,65.61
2022-07-26T00:04:24.064Z,65.55
2022-07-26T00:06:55.295Z,66.00
2022-07-26T00:09:26.486Z,66.57
2022-07-26T00:11:57.350Z,66.55
2022-07-26T00:14:28.631Z,66.52
2022-07-26T00:16:59.793Z,66.91
2022-07-26T00:19:31.242Z,66.55
2022-07-26T00:22:19.550Z,66.84
2022-07-26T00:24:50.502Z,66.96
2022-07-26T00:27:22.517Z,66.96
2022-07-26T00:29:53.477Z,66.82
2022-07-26T00:32:24.444Z,66.47
2022-07-26T00:34:55.395Z,66.72
2022-07-26T00:37:26.502Z,66.54
2022-07-26T00:39:57.470Z,66.86
2022-07-26T00:42:28.465Z,66.94
2022-07-26T00:44:59.558Z,66.77
2022-07-26T00:47:30.651Z,66.82
2022-07-26T00:50:01.817Z,66.97
2022-07-26T00:52:32.781Z,66.87
2022-07-26T00:55:04.844Z,66.97
2022-07-26T00:57:36.032Z,67.26
2022-07-26T01:00:08.439Z,67.55
2022-07-26T01:02:39.354Z,67.26
2022-07-26T01:05:11.408Z,67.53
2022-07-26T01:07:43.055Z,67.59
2022-07-26T01:10:14.886Z,67.60
2022-07-26T01:12:46.388Z,67.38
2022-07-26T01:15:18.373Z,67.57
2022-07-26T01:17:49.314Z,67.79
2022-07-26T01:20:20.371Z,67.90
2022-07-26T01:22:55.148Z,67.88
2022-07-26T01:25:33.540Z,67.94
2022-07-26T01:28:19.712Z,67.86
2022-07-26T01:30:51.335Z,67.82
2022-07-26T01:33:22.695Z,67.71
2022-07-26T01:35:53.919Z,67.93
2022-07-26T01:38:24.918Z,68.12
2022-07-26T01:40:56.277Z,68.34
2022-07-26T01:43:27.900Z,68.43
2022-07-26T01:45:59.006Z,68.71
2022-07-26T01:48:44.150Z,68.72
2022-07-26T01:51:15.617Z,68.67
2022-07-26T01:53:47.556Z,68.58
2022-07-26T01:56:18.408Z,68.67
2022-07-26T01:58:49.807Z,68.63
2022-07-26T02:01:38.895Z,68.86
2022-07-26T02:04:32.139Z,69.03
2022-07-26T02:07:05.593Z,68.98
2022-07-26T02:09:44.154Z,68.65
2022-07-26T02:12:15.071Z,68.42
2022-07-26T02:14:45.947Z,68.44
2022-07-26T02:17:17.388Z,68.28
2022-07-26T02:19:48.296Z,68.29
2022-07-26T02:22:19.968Z,67.83
2022-07-26T02:24:51.049Z,67.40
2022-07-26T02:27:22.013Z,66.80
2022-07-26T02:29:52.988Z,66.15
2022-07-26T02:32:23.876Z,65.75
2022-07-26T02:34:54.938Z,65.34
2022-07-26T02:37:26.185Z,64.87
2022-07-26T02:39:57.045Z,64.72
2022-07-26T02:42:28.143Z,64.32
2022-07-26T02:44:58.980Z,64.16
2022-07-26T02:47:30.534Z,63.98
2022-07-26T02:50:01.408Z,63.77
2022-07-26T02:52:32.341Z,63.61
2022-07-26T02:55:03.391Z,63.94
2022-07-26T02:57:45.265Z,64.09
2022-07-26T03:00:17.013Z,64.15
2022-07-26T03:03:08.103Z,64.34
2022-07-26T03:05:39.180Z,64.35
2022-07-26T03:08:10.580Z,64.42
2022-07-26T03:10:41.918Z,64.78
2022-07-26T03:13:12.757Z,64.88
2022-07-26T03:15:43.957Z,64.94
2022-07-26T03:18:14.979Z,64.77
2022-07-26T03:20:59.706Z,64.70
2022-07-26T03:23:33.533Z,64.63
2022-07-26T03:26:05.079Z,64.52
2022-07-26T03:28:36.503Z,64.11
2022-07-26T03:31:07.756Z,63.76
2022-07-26T03:33:38.957Z,63.59
2022-07-26T03:36:11.501Z,63.23
2022-07-26T03:38:46.598Z,63.22
2022-07-26T03:41:17.644Z,63.13
2022-07-26T03:43:48.855Z,62.86
2022-07-26T03:46:20.120Z,62.58
2022-07-26T03:48:51.327Z,62.23
2022-07-26T03:51:22.239Z,62.03
2022-07-26T03:53:53.003Z,61.69
2022-07-26T03:56:40.449Z,61.46
2022-07-26T03:59:12.680Z,61.50
2022-07-26T04:01:44.999Z,61.40
2022-07-26T04:04:18.553Z,61.28
2022-07-26T04:07:10.078Z,61.11
2022-07-26T04:09:43.885Z,61.09
2022-07-26T04:12:15.132Z,61.06
2022-07-26T04:14:46.093Z,61.10
2022-07-26T04:17:17.296Z,61.07
2022-07-26T04:19:48.400Z,61.10
2022-07-26T04:22:19.601Z,61.32
2022-07-26T04:24:50.573Z,61.58
2022-07-26T04:27:21.584Z,61.44
2022-07-26T04:29:52.501Z,61.87
2022-07-26T04:32:23.786Z,61.96
2022-07-26T04:34:55.173Z,62.02
2022-07-26T04:37:26.279Z,62.06
2022-07-26T04:39:57.244Z,62.26
2022-07-26T04:42:28.200Z,62.12
2022-07-26T04:45:02.015Z,62.41
2022-07-26T04:47:35.610Z,62.63
2022-07-26T04:50:09.289Z,62.53
2022-07-26T04:52:40.619Z,62.76
2022-07-26T04:55:12.897Z,62.74
2022-07-26T04:57:44.248Z,62.48
2022-07-26T05:00:24.879Z,62.50
2022-07-26T05:02:59.392Z,62.36
2022-07-26T05:05:32.778Z,62.44
2022-07-26T05:08:05.482Z,61.52
2022-07-26T05:10:38.157Z,61.77
2022-07-26T05:13:09.312Z,61.29
2022-07-26T05:15:40.389Z,59.37
2022-07-26T05:18:13.879Z,59.00
2022-07-26T05:20:44.939Z,58.76
2022-07-26T05:23:16.841Z,59.68
2022-07-26T05:25:48.092Z,60.37
2022-07-26T05:28:19.076Z,61.30
2022-07-26T05:30:49.824Z,61.22
2022-07-26T05:33:21.067Z,60.86
2022-07-26T05:35:52.086Z,59.74
2022-07-26T05:38:22.918Z,59.47
2022-07-26T05:40:53.961Z,58.82
2022-07-26T05:43:26.143Z,58.51
2022-07-26T05:45:58.992Z,57.68
2022-07-26T05:48:31.059Z,58.15
2022-07-26T05:51:02.010Z,58.03
2022-07-26T05:53:33.367Z,57.04
2022-07-26T05:56:04.892Z,57.00
2022-07-26T05:58:35.901Z,56.29
2022-07-26T06:01:07.062Z,55.19
2022-07-26T06:03:37.945Z,54.64
2022-07-26T06:06:09.777Z,54.94
2022-07-26T06:08:40.794Z,54.27
2022-07-26T06:11:11.744Z,54.59
2022-07-26T06:14:02.443Z,53.68
2022-07-26T06:16:33.633Z,53.83
2022-07-26T06:19:04.850Z,53.82
2022-07-26T06:21:35.718Z,53.46
2022-07-26T06:24:08.157Z,53.88
2022-07-26T06:26:39.568Z,54.11
2022-07-26T06:29:10.678Z,54.01
2022-07-26T06:31:41.894Z,53.79
2022-07-26T06:34:13.067Z,54.48
2022-07-26T06:36:58.161Z,55.02
2022-07-26T06:39:28.991Z,54.78
2022-07-26T06:41:59.972Z,54.32
2022-07-26T06:44:30.913Z,53.97
2022-07-26T06:47:01.898Z,53.75
2022-07-26T06:49:32.840Z,53.66
2022-07-26T06:52:04.232Z,53.71
2022-07-26T06:54:35.153Z,53.57
2022-07-26T06:57:06.299Z,53.04
2022-07-26T06:59:37.309Z,52.60
2022-07-26T07:02:08.581Z,52.53
2022-07-26T07:04:39.582Z,52.11
2022-07-26T07:07:10.420Z,51.52
2022-07-26T07:09:42.994Z,51.26
2022-07-26T07:12:15.423Z,51.45
2022-07-26T07:14:46.379Z,51.49
2022-07-26T07:17:21.210Z,50.69
2022-07-26T07:19:52.179Z,49.99
2022-07-26T07:22:23.085Z,49.77
2022-07-26T07:24:53.958Z,49.33
2022-07-26T07:27:24.813Z,48.60
2022-07-26T07:29:58.295Z,48.76
2022-07-26T07:32:29.377Z,48.98
2022-07-26T07:35:00.384Z,48.40
2022-07-26T07:37:52.823Z,48.54
2022-07-26T07:40:22.688Z,48.47
2022-07-26T07:42:53.846Z,48.03
2022-07-26T07:45:25.213Z,47.56
2022-07-26T07:47:56.825Z,47.91
2022-07-26T07:50:28.492Z,47.93
2022-07-26T07:52:59.712Z,46.76
2022-07-26T07:55:40.634Z,46.97
2022-07-26T07:58:14.507Z,46.91
2022-07-26T08:00:46.784Z,46.46
2022-07-26T08:03:19.427Z,46.19
2022-07-26T08:05:51.082Z,45.63
2022-07-26T08:08:22.964Z,46.28
2022-07-26T08:10:54.568Z,46.34
2022-07-26T08:13:27.850Z,45.13
2022-07-26T08:15:59.578Z,45.49
2022-07-26T08:18:32.066Z,45.13
2022-07-26T08:21:04.555Z,46.16
2022-07-26T08:23:35.486Z,45.42
2022-07-26T08:26:07.052Z,45.39
2022-07-26T08:28:47.531Z,45.44
2022-07-26T08:31:21.132Z,45.48
2022-07-26T08:33:52.397Z,45.70
2022-07-26T08:36:23.981Z,46.09
2022-07-26T08:38:55.120Z,45.97
2022-07-26T08:41:25.994Z,46.35
2022-07-26T08:44:05.258Z,45.71
2022-07-26T08:46:38.566Z,45.44
2022-07-26T08:49:11.315Z,45.14
2022-07-26T08:51:44.287Z,44.80
2022-07-26T08:54:16.707Z,45.16
2022-07-26T08:56:54.251Z,45.59
2022-07-26T08:59:25.223Z,45.88
2022-07-26T09:02:00.198Z,45.53
2022-07-26T09:04:36.301Z,44.68
2022-07-26T09:07:11.767Z,44.47
2022-07-26T09:09:59.495Z,44.18
2022-07-26T09:12:32.559Z,42.71
2022-07-26T09:15:06.650Z,43.40
2022-07-26T09:17:46.095Z,43.21
2022-07-26T09:20:24.394Z,42.66
2022-07-26T09:23:02.152Z,42.74
2022-07-26T09:25:32.897Z,43.38
2022-07-26T09:28:04.590Z,44.19
2022-07-26T09:30:35.513Z,44.06
2022-07-26T09:33:22.017Z,44.23
2022-07-26T09:36:05.668Z,42.47
2022-07-26T09:39:04.169Z,43.17
2022-07-26T09:41:37.265Z,42.66
2022-07-26T09:44:20.776Z,41.42
2022-07-26T09:46:57.279Z,39.15
2022-07-26T09:49:40.138Z,39.56
2022-07-26T09:52:19.429Z,39.86
2022-07-26T09:54:51.333Z,40.30
2022-07-26T09:57:22.841Z,39.62
2022-07-26T09:59:54.099Z,39.61
2022-07-26T10:02:25.071Z,39.63
2022-07-26T10:04:56.087Z,39.50
2022-07-26T10:07:27.289Z,39.42
2022-07-26T10:10:03.686Z,40.52
2022-07-26T10:12:34.009Z,39.32
2022-07-26T10:15:05.356Z,40.02
2022-07-26T10:17:43.900Z,40.34
2022-07-26T10:20:48.325Z,41.36
2022-07-26T10:23:43.429Z,41.07
2022-07-26T10:26:32.635Z,41.10
2022-07-26T10:29:25.841Z,40.37
2022-07-26T10:32:21.471Z,40.70
2022-07-26T10:34:52.658Z,41.21
2022-07-26T10:37:29.744Z,41.33
2022-07-26T10:40:19.979Z,41.72
2022-07-26T10:42:52.734Z,41.97
2022-07-26T10:45:45.453Z,41.63
2022-07-26T10:48:24.657Z,41.09
2022-07-26T10:50:56.565Z,41.69
2022-07-26T10:53:28.423Z,40.82
2022-07-26T10:56:01.546Z,40.70
2022-07-26T10:58:44.483Z,40.14
2022-07-26T11:01:15.740Z,40.99
2022-07-26T11:03:46.994Z,41.42
2022-07-26T11:06:19.733Z,40.55
2022-07-26T11:08:50.865Z,40.55
2022-07-26T11:11:33.372Z,41.38
2022-07-26T11:14:09.702Z,40.81
2022-07-26T11:16:42.441Z,41.05
2022-07-26T11:19:18.498Z,41.63
2022-07-26T11:21:55.090Z,40.48
2022-07-26T11:24:26.936Z,40.47
2022-07-26T11:27:04.642Z,40.30
2022-07-26T11:29:40.511Z,41.13
2022-07-26T11:32:22.518Z,40.48
2022-07-26T11:35:02.369Z,41.17
2022-07-26T11:37:33.198Z,41.92
2022-07-26T11:40:04.421Z,41.49
2022-07-26T11:42:35.441Z,41.78
2022-07-26T11:45:10.485Z,41.92
2022-07-26T11:47:41.287Z,41.04
2022-07-26T11:50:20.011Z,41.17
2022-07-26T11:52:53.902Z,41.08
2022-07-26T11:55:30.637Z,40.40
2022-07-26T11:58:07.442Z,40.59
2022-07-26T12:00:39.055Z,41.35
2022-07-26T12:03:10.266Z,41.31
2022-07-26T12:05:42.146Z,41.98
2022-07-26T12:08:13.506Z,40.83
2022-07-26T12:10:44.648Z,39.46
2022-07-26T12:13:17.058Z,40.12
2022-07-26T12:15:50.154Z,39.42
2022-07-26T12:18:29.386Z,39.48
2022-07-26T12:21:05.565Z,38.72
2022-07-26T12:23:49.895Z,39.94
2022-07-26T12:26:26.260Z,39.25
2022-07-26T12:28:58.497Z,38.95
2022-07-26T12:31:50.976Z,39.10
2022-07-26T12:34:25.429Z,38.95
2022-07-26T12:36:56.700Z,38.77
2022-07-26T12:39:27.638Z,38.84
2022-07-26T12:41:58.664Z,38.91
2022-07-26T12:44:29.708Z,37.85
2022-07-26T12:47:00.469Z,38.38
2022-07-26T12:49:31.785Z,38.28
2022-07-26T12:52:03.014Z,39.40
2022-07-26T12:54:34.165Z,38.78
2022-07-26T12:57:05.160Z,38.10
2022-07-26T12:59:39.554Z,38.79
2022-07-26T13:02:13.901Z,37.19
2022-07-26T13:04:45.561Z,36.78
2022-07-26T13:07:18.122Z,36.29
2022-07-26T13:10:03.049Z,35.46
2022-07-26T13:12:42.063Z,37.08
2022-07-26T13:15:14.069Z,36.37
2022-07-26T13:17:44.980Z,35.69
2022-07-26T13:20:17.234Z,35.40
2022-07-26T13:22:48.406Z,35.07
2022-07-26T13:25:21.446Z,35.29
2022-07-26T13:27:53.607Z,34.27
2022-07-26T13:30:24.438Z,33.69
2022-07-26T13:32:55.670Z,34.14
2022-07-26T13:35:26.750Z,34.26
2022-07-26T13:37:57.773Z,34.35
2022-07-26T13:40:31.791Z,34.08
2022-07-26T13:43:03.374Z,33.12
2022-07-26T13:45:34.479Z,33.63
2022-07-26T13:48:05.940Z,33.78
2022-07-26T13:50:36.991Z,34.79
2022-07-26T13:53:08.129Z,34.53
2022-07-26T13:55:39.041Z,33.33
2022-07-26T13:58:10.544Z,34.88
2022-07-26T14:00:42.746Z,35.08
2022-07-26T14:03:14.039Z,35.55
2022-07-26T14:05:45.211Z,35.15
2022-07-26T14:08:16.326Z,34.77
2022-07-26T14:10:47.364Z,35.10
2022-07-26T14:13:18.459Z,34.64
2022-07-26T14:15:49.044Z,35.38
2022-07-26T14:18:20.147Z,34.59
2022-07-26T14:20:50.992Z,34.52
2022-07-26T14:23:21.909Z,32.52
2022-07-26T14:25:53.099Z,32.86
2022-07-26T14:28:24.212Z,32.10
2022-07-26T14:30:55.140Z,32.66
2022-07-26T14:33:26.182Z,32.06
2022-07-26T14:35:57.022Z,32.38
2022-07-26T14:38:30.137Z,32.13
2022-07-26T14:41:01.824Z,31.30
2022-07-26T14:43:32.982Z,32.00
2022-07-26T14:46:04.041Z,31.38
2022-07-26T14:48:53.420Z,31.35
2022-07-26T14:51:25.814Z,30.71
2022-07-26T14:53:56.854Z,29.93
2022-07-26T14:56:27.645Z,30.35
2022-07-26T14:58:58.501Z,29.36
2022-07-26T15:01:29.251Z,29.49
2022-07-26T15:04:00.370Z,29.01
2022-07-26T15:06:31.811Z,29.39
2022-07-26T15:09:03.311Z,28.94
2022-07-26T15:11:35.292Z,28.23
2022-07-26T15:14:07.323Z,28.78
2022-07-26T15:16:38.614Z,28.81
2022-07-26T15:19:09.669Z,28.52
2022-07-26T15:21:40.803Z,28.44
2022-07-26T15:24:14.252Z,28.87
2022-07-26T15:26:46.877Z,28.11
2022-07-26T15:29:18.211Z,28.65
2022-07-26T15:31:52.150Z,28.58
2022-07-26T15:34:23.072Z,28.68
2022-07-26T15:36:54.687Z,28.21
2022-07-26T15:39:25.577Z,28.29
2022-07-26T15:41:59.479Z,28.53
2022-07-26T15:44:33.601Z,27.92
2022-07-26T15:47:05.407Z,28.53
2022-07-26T15:49:40.851Z,28.59
2022-07-26T15:52:13.280Z,27.60
2022-07-26T15:54:46.100Z,27.40
2022-07-26T15:57:18.921Z,27.70
2022-07-26T15:59:49.827Z,28.12
2022-07-26T16:02:20.966Z,27.63
2022-07-26T16:04:52.099Z,27.04
2022-07-26T16:07:22.984Z,27.30
2022-07-26T16:09:53.914Z,27.38
2022-07-26T16:12:25.020Z,27.71
2022-07-26T16:14:56.009Z,27.52
2022-07-26T16:17:27.219Z,27.68
2022-07-26T16:19:58.284Z,27.63
2022-07-26T16:22:33.152Z,27.49
2022-07-26T16:25:08.218Z,27.76
2022-07-26T16:27:39.149Z,28.34
2022-07-26T16:30:12.064Z,28.50
2022-07-26T16:32:43.228Z,28.19
2022-07-26T16:35:14.911Z,28.38
2022-07-26T16:37:45.839Z,27.97
2022-07-26T16:40:16.921Z,28.69
2022-07-26T16:42:47.868Z,29.12
2022-07-26T16:45:18.779Z,28.27
2022-07-26T16:47:49.744Z,28.06
2022-07-26T16:50:24.964Z,28.38
2022-07-26T16:52:58.634Z,27.57
2022-07-26T16:55:29.959Z,27.36
2022-07-26T16:58:00.887Z,27.59
2022-07-26T17:00:32.074Z,27.61
2022-07-26T17:03:03.147Z,27.93
2022-07-26T17:05:34.242Z,28.16
2022-07-26T17:08:05.588Z,28.22
2022-07-26T17:10:36.430Z,28.21
2022-07-26T17:13:07.510Z,28.61
2022-07-26T17:15:38.370Z,29.37
2022-07-26T17:18:09.516Z,29.75
2022-07-26T17:20:40.321Z,29.39
2022-07-26T17:23:11.366Z,29.84
2022-07-26T17:25:42.368Z,29.92
2022-07-26T17:28:13.490Z,30.10
2022-07-26T17:30:44.503Z,30.18
2022-07-26T17:33:15.501Z,30.37
2022-07-26T17:35:46.472Z,31.11
2022-07-26T17:38:17.545Z,31.18
2022-07-26T17:40:48.743Z,31.46
2022-07-26T17:43:19.994Z,31.91
2022-07-26T17:45:51.051Z,32.48
2022-07-26T17:48:21.757Z,33.37
2022-07-26T17:50:52.910Z,32.98
2022-07-26T17:53:34.098Z,34.10
2022-07-26T17:56:06.045Z,34.18
2022-07-26T17:58:36.959Z,35.51
2022-07-26T18:01:08.257Z,36.35
2022-07-26T18:03:39.262Z,36.48
2022-07-26T18:06:10.629Z,36.56
2022-07-26T18:08:41.620Z,36.64
2022-07-26T18:11:12.885Z,36.77
2022-07-26T18:13:43.863Z,37.31
2022-07-26T18:16:14.986Z,37.05
2022-07-26T18:18:45.933Z,37.78
2022-07-26T18:21:17.067Z,37.67
2022-07-26T18:24:14.420Z,37.23
2022-07-26T18:26:40.183Z,37.16
2022-07-26T18:29:11.745Z,36.96
2022-07-26T18:31:43.194Z,37.23
2022-07-26T18:34:13.968Z,37.75
2022-07-26T18:36:45.131Z,38.45
2022-07-26T18:39:16.175Z,38.54
2022-07-26T18:41:47.039Z,39.23
2022-07-26T18:44:18.206Z,40.33
2022-07-26T18:46:49.343Z,40.39
2022-07-26T18:49:21.187Z,40.52
2022-07-26T18:51:52.303Z,40.47
2022-07-26T18:54:24.004Z,41.15
2022-07-26T18:56:55.312Z,41.13
2022-07-26T18:59:26.260Z,40.74
2022-07-26T19:01:59.146Z,41.38
2022-07-26T19:04:30.538Z,42.25
2022-07-26T19:07:01.827Z,42.87
2022-07-26T19:09:32.875Z,42.46
2022-07-26T19:12:03.799Z,43.25
2022-07-26T19:14:34.877Z,43.78
2022-07-26T19:17:09.890Z,43.84
2022-07-26T19:19:42.984Z,44.52
2022-07-26T19:22:14.107Z,44.86
2022-07-26T19:24:45.070Z,45.27
2022-07-26T19:27:16.277Z,45.74
2022-07-26T19:29:48.698Z,46.63
2022-07-26T19:32:19.768Z,46.93
2022-07-26T19:34:50.829Z,46.91
2022-07-26T19:37:22.720Z,46.88
2022-07-26T19:39:55.751Z,46.87
2022-07-26T19:42:26.508Z,47.03
2022-07-26T19:44:57.370Z,46.59
2022-07-26T19:47:29.895Z,46.47
2022-07-26T19:50:00.895Z,46.69
2022-07-26T19:52:33.611Z,46.96
2022-07-26T19:55:04.943Z,46.85
2022-07-26T19:57:36.336Z,46.87
2022-07-26T20:00:10.439Z,46.77
2022-07-26T20:02:41.728Z,46.80
2022-07-26T20:05:13.849Z,47.16
2022-07-26T20:07:44.777Z,47.46
2022-07-26T20:10:15.852Z,47.24
2022-07-26T20:12:46.687Z,47.42
2022-07-26T20:15:17.667Z,47.27
2022-07-26T20:17:48.691Z,47.48
2022-07-26T20:20:20.075Z,48.42
2022-07-26T20:22:51.157Z,48.60
2022-07-26T20:25:22.585Z,48.44
2022-07-26T20:27:54.445Z,48.57
2022-07-26T20:30:28.512Z,49.33
2022-07-26T20:32:59.405Z,49.43
2022-07-26T20:35:31.412Z,49.86
2022-07-26T20:38:02.375Z,50.16
2022-07-26T20:40:33.716Z,50.49
2022-07-26T20:43:05.400Z,51.19
2022-07-26T20:45:37.318Z,51.54
2022-07-26T20:48:09.541Z,51.86
2022-07-26T20:50:40.855Z,52.25
2022-07-26T20:53:11.790Z,52.44
2022-07-26T20:55:42.976Z,53.34
2022-07-26T20:58:13.954Z,53.67
2022-07-26T21:00:45.274Z,54.03
2022-07-26T21:03:16.882Z,53.92
2022-07-26T21:05:48.056Z,54.24
2022-07-26T21:08:18.953Z,55.19
2022-07-26T21:10:49.903Z,55.20
2022-07-26T21:13:20.977Z,55.02
2022-07-26T21:15:53.430Z,55.17
2022-07-26T21:18:25.930Z,55.56
2022-07-26T21:20:56.969Z,56.23
2022-07-26T21:23:29.044Z,56.73
2022-07-26T21:26:00.592Z,56.85
2022-07-26T21:28:32.312Z,56.96
2022-07-26T21:31:03.278Z,56.82
2022-07-26T21:33:34.357Z,57.03
2022-07-26T21:36:05.601Z,57.12
2022-07-26T21:38:36.888Z,57.56
2022-07-26T21:41:07.825Z,57.33
2022-07-26T21:43:38.793Z,57.43
2022-07-26T21:46:12.662Z,57.38
2022-07-26T21:48:44.153Z,57.42
2022-07-26T21:51:15.267Z,57.49
2022-07-26T21:53:46.340Z,57.70
2022-07-26T21:56:17.336Z,57.91
2022-07-26T21:58:48.574Z,57.96
2022-07-26T22:01:19.702Z,58.23
2022-07-26T22:03:50.913Z,58.27
2022-07-26T22:06:21.908Z,58.21
2022-07-26T22:08:52.696Z,58.52
2022-07-26T22:11:23.941Z,58.54
2022-07-26T22:13:55.359Z,58.37
2022-07-26T22:16:26.346Z,58.25
2022-07-26T22:18:57.223Z,58.05
2022-07-26T22:21:29.054Z,58.66
2022-07-26T22:23:59.981Z,59.17
2022-07-26T22:26:31.315Z,59.17
2022-07-26T22:29:02.394Z,59.19
2022-07-26T22:31:33.743Z,59.58
2022-07-26T22:34:04.838Z,59.93
2022-07-26T22:36:35.743Z,59.71
2022-07-26T22:39:06.811Z,60.14
2022-07-26T22:42:05.062Z,60.73
2022-07-26T22:44:31.289Z,60.89
2022-07-26T22:47:02.171Z,60.73
2022-07-26T22:49:33.152Z,61.09
2022-07-26T22:52:04.241Z,61.11
2022-07-26T22:54:35.283Z,61.40
2022-07-26T22:57:06.385Z,61.77
2022-07-26T22:59:37.881Z,61.77
2022-07-26T23:02:08.962Z,61.64
2022-07-26T23:04:40.126Z,61.71
2022-07-26T23:07:11.219Z,61.61
2022-07-26T23:09:43.171Z,61.60
2022-07-26T23:12:14.255Z,62.24
2022-07-26T23:14:45.358Z,62.20
2022-07-26T23:17:16.301Z,62.05
2022-07-26T23:19:47.474Z,62.27
2022-07-26T23:22:18.387Z,62.02
2022-07-26T23:24:49.476Z,62.12
2022-07-26T23:27:20.503Z,61.97
2022-07-26T23:29:51.551Z,62.21
2022-07-26T23:32:22.558Z,62.08
2022-07-26T23:34:53.743Z,62.37
2022-07-26T23:37:24.686Z,62.35
2022-07-26T23:39:56.297Z,62.31
2022-07-26T23:42:27.298Z,62.54
2022-07-26T23:44:58.157Z,62.60
2022-07-26T23:47:29.182Z,62.46
2022-07-26T23:50:00.270Z,62.47
2022-07-26T23:52:31.243Z,62.34
2022-07-26T23:55:02.546Z,62.45
2022-07-26T23:57:33.821Z,62.71
